createdAt,value
2017-11-18T00:01:38.346Z,89.54
2017-11-18T00:04:06.091Z,89.69
2017-11-18T00:06:33.821Z,89.54
2017-11-18T00:09:01.582Z,89.29
2017-11-18T00:11:29.285Z,89.28
2017-11-18T00:13:57.024Z,88.86
2017-11-18T00:16:24.724Z,89.20
2017-11-18T00:18:52.409Z,89.71
2017-11-18T00:21:20.162Z,89.26
2017-11-18T00:23:47.884Z,88.84
2017-11-18T00:26:15.587Z,88.44
2017-11-18T00:28:43.308Z,88.69
2017-11-18T00:31:11.852Z,88.66
2017-11-18T00:33:39.582Z,88.56
2017-11-18T00:36:07.389Z,88.58
2017-11-18T00:38:35.141Z,88.46
2017-11-18T00:41:02.932Z,88.61
2017-11-18T00:43:30.658Z,89.06
2017-11-18T00:45:58.531Z,89.32
2017-11-18T00:48:26.239Z,89.41
2017-11-18T00:50:53.990Z,89.21
2017-11-18T00:53:21.702Z,89.20
2017-11-18T00:55:49.445Z,89.36
2017-11-18T00:58:17.123Z,89.34
2017-11-18T01:00:45.027Z,89.26
2017-11-18T01:03:12.717Z,89.44
2017-11-18T01:05:40.419Z,89.27
2017-11-18T01:08:08.144Z,89.49
2017-11-18T01:10:35.868Z,89.28
2017-11-18T01:13:03.609Z,89.43
2017-11-18T01:15:31.307Z,89.61
2017-11-18T01:17:59.010Z,89.29
2017-11-18T01:20:26.769Z,89.36
2017-11-18T01:22:54.479Z,89.21
2017-11-18T01:25:22.190Z,89.06
2017-11-18T01:27:49.932Z,89.01
2017-11-18T01:30:17.608Z,88.76
2017-11-18T01:32:45.314Z,88.42
2017-11-18T01:35:13.133Z,88.19
2017-11-18T01:37:40.830Z,88.33
2017-11-18T01:40:08.606Z,88.54
2017-11-18T01:42:36.325Z,89.23
2017-11-18T01:45:04.089Z,89.67
2017-11-18T01:47:31.814Z,91.98
2017-11-18T01:49:59.562Z,90.07
2017-11-18T01:52:27.274Z,89.42
2017-11-18T01:54:55.088Z,89.29
2017-11-18T01:57:22.915Z,89.13
2017-11-18T01:59:50.632Z,89.05
2017-11-18T02:02:30.131Z,88.63
2017-11-18T02:04:57.951Z,88.55
2017-11-18T02:07:25.654Z,88.66
2017-11-18T02:09:53.418Z,88.74
2017-11-18T02:12:21.116Z,88.83
2017-11-18T02:14:48.825Z,88.73
2017-11-18T02:17:16.605Z,88.52
2017-11-18T02:19:44.316Z,88.62
2017-11-18T02:22:12.733Z,88.78
2017-11-18T02:24:40.543Z,88.76
2017-11-18T02:27:08.365Z,89.02
2017-11-18T02:29:36.064Z,89.08
2017-11-18T02:32:03.942Z,89.30
2017-11-18T02:34:31.784Z,89.45
2017-11-18T02:36:59.528Z,89.17
2017-11-18T02:39:27.315Z,89.99
2017-11-18T02:41:55.262Z,90.96
2017-11-18T02:44:22.996Z,90.93
2017-11-18T02:46:50.768Z,90.44
2017-11-18T02:49:18.529Z,90.05
2017-11-18T02:51:46.419Z,90.06
2017-11-18T02:54:14.205Z,90.10
2017-11-18T02:56:41.993Z,90.34
2017-11-18T02:59:09.769Z,90.24
2017-11-18T03:01:37.549Z,89.98
2017-11-18T03:04:05.263Z,90.13
2017-11-18T03:06:33.014Z,90.51
2017-11-18T03:09:00.756Z,90.57
2017-11-18T03:11:28.495Z,90.23
2017-11-18T03:13:56.307Z,89.96
2017-11-18T03:16:24.064Z,90.48
2017-11-18T03:18:51.813Z,90.47
2017-11-18T03:21:19.580Z,89.89
2017-11-18T03:23:47.385Z,90.19
2017-11-18T03:26:15.066Z,90.95
2017-11-18T03:28:42.841Z,90.77
2017-11-18T03:31:10.560Z,90.20
2017-11-18T03:33:38.280Z,90.01
2017-11-18T03:36:06.043Z,89.93
2017-11-18T03:38:34.920Z,90.15
2017-11-18T03:41:02.626Z,89.88
2017-11-18T03:43:30.413Z,89.87
2017-11-18T03:45:58.163Z,90.27
2017-11-18T03:48:25.906Z,90.53
2017-11-18T03:50:53.860Z,90.32
2017-11-18T03:53:21.627Z,90.86
2017-11-18T03:55:49.371Z,90.30
2017-11-18T03:58:17.130Z,90.06
2017-11-18T04:00:50.438Z,89.77
2017-11-18T04:03:18.168Z,90.52
2017-11-18T04:05:46.123Z,90.11
2017-11-18T04:08:13.857Z,89.91
2017-11-18T04:10:41.670Z,89.89
2017-11-18T04:13:09.469Z,89.58
2017-11-18T04:15:37.168Z,89.44
2017-11-18T04:18:04.959Z,89.73
2017-11-18T04:20:32.669Z,89.68
2017-11-18T04:23:00.386Z,89.58
2017-11-18T04:25:28.117Z,90.23
2017-11-18T04:27:55.874Z,90.50
2017-11-18T04:30:23.606Z,90.66
2017-11-18T04:32:51.332Z,90.40
2017-11-18T04:35:19.059Z,90.24
2017-11-18T04:37:46.809Z,90.21
2017-11-18T04:40:14.582Z,90.20
2017-11-18T04:42:42.323Z,90.14
2017-11-18T04:45:10.290Z,90.31
2017-11-18T04:47:38.010Z,90.20
2017-11-18T04:50:05.837Z,90.16
2017-11-18T04:52:33.572Z,90.06
2017-11-18T04:55:01.336Z,90.18
2017-11-18T04:57:29.020Z,90.28
2017-11-18T04:59:56.721Z,90.25
2017-11-18T05:02:24.458Z,90.35
2017-11-18T05:04:52.152Z,90.24
2017-11-18T05:07:19.913Z,90.44
2017-11-18T05:09:47.706Z,90.46
2017-11-18T05:12:15.412Z,90.41
2017-11-18T05:14:43.339Z,90.47
2017-11-18T05:17:11.074Z,89.96
2017-11-18T05:19:38.754Z,90.16
2017-11-18T05:22:06.531Z,90.43
2017-11-18T05:24:34.223Z,90.37
2017-11-18T05:27:02.012Z,90.42
2017-11-18T05:29:29.720Z,90.37
2017-11-18T05:31:57.448Z,90.15
2017-11-18T05:34:25.258Z,90.19
2017-11-18T05:36:53.041Z,90.43
2017-11-18T05:39:20.798Z,90.66
2017-11-18T05:41:48.520Z,90.71
2017-11-18T05:44:16.321Z,90.66
2017-11-18T05:46:44.071Z,90.58
2017-11-18T05:49:11.788Z,91.75
2017-11-18T05:51:39.616Z,92.14
2017-11-18T05:54:07.357Z,91.75
2017-11-18T05:56:35.068Z,91.21
2017-11-18T05:59:03.352Z,90.72
2017-11-18T06:01:31.176Z,91.10
2017-11-18T06:03:58.918Z,91.04
2017-11-18T06:06:26.677Z,90.48
2017-11-18T06:08:54.390Z,90.05
2017-11-18T06:11:22.164Z,90.48
2017-11-18T06:13:50.054Z,90.30
2017-11-18T06:16:17.812Z,90.42
2017-11-18T06:18:45.596Z,90.64
2017-11-18T06:21:13.345Z,90.66
2017-11-18T06:23:41.053Z,90.71
2017-11-18T06:26:08.829Z,90.14
2017-11-18T06:28:36.502Z,90.13
2017-11-18T06:31:04.233Z,90.08
2017-11-18T06:33:31.999Z,90.06
2017-11-18T06:35:59.766Z,90.72
2017-11-18T06:38:27.531Z,91.35
2017-11-18T06:40:55.238Z,91.30
2017-11-18T06:43:22.998Z,90.62
2017-11-18T06:45:50.704Z,90.67
2017-11-18T06:48:18.579Z,91.18
2017-11-18T06:50:47.183Z,90.61
2017-11-18T06:53:14.876Z,91.13
2017-11-18T06:55:42.612Z,91.68
2017-11-18T06:58:10.353Z,91.77
2017-11-18T07:00:38.136Z,91.19
2017-11-18T07:03:06.000Z,90.79
2017-11-18T07:05:33.981Z,90.62
2017-11-18T07:08:01.688Z,90.63
2017-11-18T07:10:29.403Z,90.56
2017-11-18T07:12:57.142Z,90.23
2017-11-18T07:15:24.990Z,90.15
2017-11-18T07:17:52.758Z,90.50
2017-11-18T07:20:20.552Z,90.69
2017-11-18T07:22:49.970Z,90.65
2017-11-18T07:25:17.673Z,90.79
2017-11-18T07:27:45.410Z,90.59
2017-11-18T07:30:13.165Z,90.89
2017-11-18T07:32:40.912Z,90.80
2017-11-18T07:35:08.664Z,90.28
2017-11-18T07:37:36.561Z,90.36
2017-11-18T07:40:05.480Z,90.47
2017-11-18T07:42:33.312Z,90.28
2017-11-18T07:45:01.223Z,90.28
2017-11-18T07:47:28.966Z,89.93
2017-11-18T07:49:56.709Z,89.85
2017-11-18T07:52:24.488Z,89.41
2017-11-18T07:54:52.337Z,89.44
2017-11-18T07:57:20.252Z,89.08
2017-11-18T07:59:48.076Z,89.38
2017-11-18T08:02:15.812Z,88.94
2017-11-18T08:04:43.591Z,88.91
2017-11-18T08:07:11.411Z,88.55
2017-11-18T08:09:39.184Z,88.42
2017-11-18T08:12:07.956Z,88.54
2017-11-18T08:14:35.729Z,88.09
2017-11-18T08:17:03.451Z,87.87
2017-11-18T08:19:31.832Z,87.91
2017-11-18T08:21:59.555Z,87.22
2017-11-18T08:24:28.606Z,87.02
2017-11-18T08:26:57.298Z,87.84
2017-11-18T08:29:25.063Z,87.80
2017-11-18T08:31:53.983Z,87.74
2017-11-18T08:34:21.906Z,87.74
2017-11-18T08:36:49.681Z,87.55
2017-11-18T08:39:17.419Z,87.72
2017-11-18T08:41:45.212Z,88.03
2017-11-18T08:44:12.994Z,88.18
2017-11-18T08:46:40.809Z,88.11
2017-11-18T08:49:08.551Z,88.00
2017-11-18T08:51:36.242Z,87.70
2017-11-18T08:54:04.125Z,87.46
2017-11-18T08:56:31.927Z,86.96
2017-11-18T08:58:59.787Z,85.67
2017-11-18T09:01:27.525Z,85.11
2017-11-18T09:03:56.102Z,85.74
2017-11-18T09:06:23.910Z,85.83
2017-11-18T09:08:51.928Z,85.57
2017-11-18T09:11:19.769Z,84.52
2017-11-18T09:13:47.713Z,84.73
2017-11-18T09:16:15.559Z,84.98
2017-11-18T09:18:43.615Z,84.61
2017-11-18T09:21:11.411Z,83.73
2017-11-18T09:23:39.162Z,83.77
2017-11-18T09:26:06.986Z,83.30
2017-11-18T09:28:34.807Z,83.96
2017-11-18T09:31:02.552Z,82.75
2017-11-18T09:33:30.367Z,83.50
2017-11-18T09:35:58.240Z,84.28
2017-11-18T09:38:26.036Z,83.41
2017-11-18T09:40:53.772Z,83.89
2017-11-18T09:43:21.597Z,84.76
2017-11-18T09:45:49.344Z,83.81
2017-11-18T09:48:17.072Z,83.06
2017-11-18T09:50:44.809Z,83.45
2017-11-18T09:53:12.571Z,83.87
2017-11-18T09:55:40.319Z,82.51
2017-11-18T09:58:08.292Z,81.94
2017-11-18T10:00:36.128Z,82.72
2017-11-18T10:03:03.958Z,82.80
2017-11-18T10:05:31.758Z,82.60
2017-11-18T10:07:59.500Z,82.03
2017-11-18T10:10:27.296Z,82.30
2017-11-18T10:12:55.159Z,82.12
2017-11-18T10:15:22.970Z,81.46
2017-11-18T10:17:50.820Z,81.75
2017-11-18T10:20:18.674Z,80.55
2017-11-18T10:22:46.584Z,79.35
2017-11-18T10:25:14.351Z,78.42
2017-11-18T10:27:42.152Z,76.93
2017-11-18T10:30:10.066Z,76.72
2017-11-18T10:32:37.863Z,78.21
2017-11-18T10:35:05.699Z,77.09
2017-11-18T10:37:33.518Z,77.40
2017-11-18T10:40:01.301Z,78.74
2017-11-18T10:42:29.071Z,76.92
2017-11-18T10:44:57.987Z,77.46
2017-11-18T10:47:25.748Z,76.60
2017-11-18T10:49:55.416Z,77.22
2017-11-18T10:52:23.293Z,78.07
2017-11-18T10:54:51.039Z,77.91
2017-11-18T10:57:19.071Z,77.47
2017-11-18T10:59:46.769Z,76.68
2017-11-18T11:02:14.480Z,76.46
2017-11-18T11:04:42.287Z,77.45
2017-11-18T11:07:09.994Z,77.75
2017-11-18T11:09:37.760Z,77.06
2017-11-18T11:12:06.330Z,76.20
2017-11-18T11:14:34.045Z,76.21
2017-11-18T11:17:01.926Z,76.87
2017-11-18T11:19:29.797Z,76.22
2017-11-18T11:21:57.494Z,76.69
2017-11-18T11:24:26.302Z,74.45
2017-11-18T11:26:54.107Z,75.44
2017-11-18T11:29:21.909Z,74.18
2017-11-18T11:31:49.661Z,74.06
2017-11-18T11:34:17.414Z,72.80
2017-11-18T11:36:45.221Z,72.92
2017-11-18T11:39:12.982Z,73.05
2017-11-18T11:41:40.744Z,73.16
2017-11-18T11:44:09.391Z,71.65
2017-11-18T11:46:37.395Z,71.72
2017-11-18T11:49:05.151Z,72.82
2017-11-18T11:51:33.752Z,74.43
2017-11-18T11:54:01.560Z,73.71
2017-11-18T11:56:29.435Z,74.72
2017-11-18T11:58:58.173Z,74.87
2017-11-18T12:01:25.942Z,74.68
2017-11-18T12:03:53.722Z,73.08
2017-11-18T12:06:21.555Z,73.11
2017-11-18T12:08:49.307Z,73.70
2017-11-18T12:11:17.175Z,71.43
2017-11-18T12:13:44.921Z,72.02
2017-11-18T12:16:12.817Z,71.15
2017-11-18T12:18:40.627Z,71.47
2017-11-18T12:21:09.009Z,72.49
2017-11-18T12:23:36.845Z,72.27
2017-11-18T12:26:04.573Z,71.87
2017-11-18T12:28:32.334Z,70.37
2017-11-18T12:31:00.233Z,68.10
2017-11-18T12:33:28.078Z,67.36
2017-11-18T12:35:55.859Z,69.11
2017-11-18T12:38:23.781Z,68.21
2017-11-18T12:40:51.619Z,68.50
2017-11-18T12:43:19.383Z,67.37
2017-11-18T12:45:47.178Z,65.38
2017-11-18T12:48:14.985Z,64.28
2017-11-18T12:50:42.908Z,66.91
2017-11-18T12:53:11.289Z,67.84
2017-11-18T12:55:39.082Z,68.12
2017-11-18T12:58:06.822Z,64.86
2017-11-18T13:00:35.435Z,65.44
2017-11-18T13:03:04.019Z,65.42
2017-11-18T13:05:31.783Z,66.86
2017-11-18T13:07:59.568Z,67.56
2017-11-18T13:10:27.398Z,66.03
2017-11-18T13:12:55.942Z,67.76
2017-11-18T13:15:23.663Z,66.79
2017-11-18T13:17:52.995Z,67.28
2017-11-18T13:20:20.704Z,67.07
2017-11-18T13:22:49.391Z,65.91
2017-11-18T13:25:17.159Z,67.93
2017-11-18T13:27:44.991Z,69.29
2017-11-18T13:30:12.837Z,69.20
2017-11-18T13:32:40.736Z,69.90
2017-11-18T13:35:08.541Z,70.06
2017-11-18T13:37:36.361Z,70.42
2017-11-18T13:40:04.094Z,69.39
2017-11-18T13:42:31.845Z,69.04
2017-11-18T13:44:59.539Z,68.51
2017-11-18T13:47:27.238Z,67.72
2017-11-18T13:49:54.997Z,67.58
2017-11-18T13:52:22.709Z,67.82
2017-11-18T13:54:50.438Z,68.54
2017-11-18T13:57:18.146Z,68.51
2017-11-18T13:59:45.908Z,67.57
2017-11-18T14:02:13.764Z,68.43
2017-11-18T14:04:41.601Z,69.63
2017-11-18T14:07:09.368Z,70.67
2017-11-18T14:09:38.420Z,70.52
2017-11-18T14:12:06.183Z,70.75
2017-11-18T14:14:33.906Z,71.88
2017-11-18T14:17:01.767Z,71.78
2017-11-18T14:19:29.548Z,72.65
2017-11-18T14:21:57.363Z,71.75
2017-11-18T14:24:25.197Z,73.67
2017-11-18T14:26:53.013Z,74.31
2017-11-18T14:29:20.718Z,75.81
2017-11-18T14:31:48.493Z,75.46
2017-11-18T14:34:17.355Z,75.19
2017-11-18T14:36:45.185Z,75.95
2017-11-18T14:39:12.971Z,70.90
2017-11-18T14:41:40.789Z,74.60
2017-11-18T14:44:10.446Z,74.64
2017-11-18T14:46:38.207Z,75.44
2017-11-18T14:49:06.345Z,74.96
2017-11-18T14:51:34.060Z,73.47
2017-11-18T14:54:01.809Z,70.64
2017-11-18T14:56:29.608Z,73.09
2017-11-18T14:58:57.391Z,70.84
2017-11-18T15:01:25.166Z,70.17
2017-11-18T15:03:53.051Z,69.32
2017-11-18T15:06:20.887Z,68.20
2017-11-18T15:08:48.763Z,68.44
2017-11-18T15:11:16.573Z,69.58
2017-11-18T15:13:44.376Z,69.11
2017-11-18T15:16:18.954Z,67.63
2017-11-18T15:18:56.170Z,66.87
2017-11-18T15:21:27.596Z,67.57
2017-11-18T15:24:00.785Z,68.32
2017-11-18T15:26:29.430Z,68.09
2017-11-18T15:29:11.628Z,69.45
2017-11-18T15:35:10.725Z,71.33
2017-11-18T15:37:43.387Z,72.52
2017-11-18T15:40:11.232Z,73.68
2017-11-18T15:42:39.152Z,74.77
2017-11-18T15:45:09.402Z,74.86
2017-11-18T15:47:42.746Z,75.42
2017-11-18T15:50:16.175Z,76.27
2017-11-18T15:52:49.420Z,76.74
2017-11-18T15:55:20.270Z,77.16
2017-11-18T15:57:48.165Z,78.01
2017-11-18T16:00:16.084Z,77.57
2017-11-18T16:05:45.171Z,79.19
2017-11-18T16:08:13.979Z,79.80
2017-11-18T16:10:41.745Z,80.31
2017-11-18T16:13:09.531Z,80.00
2017-11-18T16:15:37.345Z,79.74
2017-11-18T16:18:05.302Z,80.65
2017-11-18T16:20:33.166Z,81.54
2017-11-18T16:23:00.944Z,82.07
2017-11-18T16:25:28.776Z,81.91
2017-11-18T16:27:56.629Z,81.98
2017-11-18T16:30:24.468Z,81.32
2017-11-18T16:32:52.311Z,81.82
2017-11-18T16:35:20.574Z,81.83
2017-11-18T16:37:48.444Z,82.15
2017-11-18T16:40:16.297Z,81.87
2017-11-18T16:42:44.950Z,81.70
2017-11-18T16:45:12.788Z,82.33
2017-11-18T16:47:40.661Z,82.32
2017-11-18T16:50:08.524Z,82.33
2017-11-18T16:52:36.340Z,82.35
2017-11-18T16:55:04.089Z,82.77
2017-11-18T16:57:31.955Z,83.07
2017-11-18T16:59:59.844Z,83.08
2017-11-18T17:02:27.703Z,83.39
2017-11-18T17:04:55.796Z,83.60
2017-11-18T17:07:23.528Z,83.61
2017-11-18T17:09:51.376Z,83.82
2017-11-18T17:12:19.224Z,83.74
2017-11-18T17:14:46.997Z,84.17
2017-11-18T17:17:14.824Z,83.60
2017-11-18T17:19:42.656Z,84.11
2017-11-18T17:22:10.458Z,82.43
2017-11-18T17:24:38.361Z,82.42
2017-11-18T17:27:06.210Z,82.77
2017-11-18T17:29:34.517Z,83.10
2017-11-18T17:32:02.334Z,84.03
2017-11-18T17:34:30.189Z,84.42
2017-11-18T17:36:58.015Z,84.38
2017-11-18T17:39:25.971Z,84.41
2017-11-18T17:41:53.920Z,84.77
2017-11-18T17:44:21.660Z,84.64
2017-11-18T17:46:49.505Z,84.58
2017-11-18T17:49:17.353Z,84.43
2017-11-18T17:51:45.582Z,84.32
2017-11-18T17:54:13.468Z,84.41
2017-11-18T17:56:41.331Z,84.54
2017-11-18T17:59:09.126Z,85.09
2017-11-18T18:01:36.868Z,85.10
2017-11-18T18:04:04.644Z,85.61
2017-11-18T18:06:32.398Z,85.63
2017-11-18T18:09:00.270Z,85.42
2017-11-18T18:11:28.996Z,85.45
2017-11-18T18:13:56.896Z,85.92
2017-11-18T18:16:24.710Z,86.11
2017-11-18T18:18:52.425Z,85.60
2017-11-18T18:21:20.202Z,85.86
2017-11-18T18:23:47.910Z,85.93
2017-11-18T18:26:15.661Z,85.85
2017-11-18T18:28:43.473Z,85.74
2017-11-18T18:31:12.538Z,85.69
2017-11-18T18:33:40.289Z,85.76
2017-11-18T18:36:07.991Z,85.50
2017-11-18T18:38:36.171Z,86.05
2017-11-18T18:41:04.016Z,86.40
2017-11-18T18:43:31.965Z,86.27
2017-11-18T18:46:00.578Z,86.22
2017-11-18T18:48:28.451Z,86.05
2017-11-18T18:50:56.264Z,87.04
2017-11-18T18:53:24.922Z,87.31
2017-11-18T18:55:52.737Z,87.31
2017-11-18T18:58:20.548Z,86.91
2017-11-18T19:00:48.381Z,87.22
2017-11-18T19:03:16.253Z,87.05
2017-11-18T19:05:44.471Z,87.16
2017-11-18T19:08:12.332Z,86.67
2017-11-18T19:10:40.197Z,86.27
2017-11-18T19:13:08.102Z,87.79
2017-11-18T19:15:36.961Z,86.85
2017-11-18T19:18:05.025Z,86.82
2017-11-18T19:20:32.929Z,86.82
2017-11-18T19:23:00.687Z,86.58
2017-11-18T19:25:28.497Z,86.61
2017-11-18T19:27:56.380Z,86.62
2017-11-18T19:30:24.977Z,87.04
2017-11-18T19:32:52.932Z,87.05
2017-11-18T19:35:21.112Z,86.85
2017-11-18T19:37:48.976Z,86.42
2017-11-18T19:40:16.789Z,86.75
2017-11-18T19:42:44.746Z,86.89
2017-11-18T19:45:12.794Z,86.90
2017-11-18T19:47:40.754Z,87.22
2017-11-18T19:50:08.676Z,86.66
2017-11-18T19:52:36.440Z,86.53
2017-11-18T19:55:04.384Z,86.59
2017-11-18T19:57:32.345Z,86.66
2017-11-18T20:00:00.421Z,86.49
2017-11-18T20:02:28.292Z,85.91
2017-11-18T20:04:56.089Z,86.28
2017-11-18T20:07:24.021Z,86.38
2017-11-18T20:09:51.878Z,86.21
2017-11-18T20:12:19.993Z,86.11
2017-11-18T20:14:48.232Z,86.85
2017-11-18T20:17:17.618Z,86.85
2017-11-18T20:19:45.711Z,86.97
2017-11-18T20:22:13.691Z,86.78
2017-11-18T20:24:41.981Z,86.31
2017-11-18T20:27:09.883Z,86.61
2017-11-18T20:29:37.909Z,86.91
2017-11-18T20:32:05.910Z,87.01
2017-11-18T20:34:34.369Z,86.80
2017-11-18T20:37:02.142Z,86.49
2017-11-18T20:39:29.914Z,86.71
2017-11-18T20:41:57.662Z,86.29
2017-11-18T20:44:26.325Z,85.76
2017-11-18T20:46:54.147Z,85.53
2017-11-18T20:49:23.153Z,85.75
2017-11-18T20:51:50.967Z,85.05
2017-11-18T20:54:18.805Z,85.17
2017-11-18T20:56:46.634Z,86.47
2017-11-18T20:59:15.641Z,86.50
2017-11-18T21:01:43.422Z,85.56
2017-11-18T21:04:11.161Z,85.24
2017-11-18T21:06:38.940Z,85.12
2017-11-18T21:09:06.709Z,85.31
2017-11-18T21:11:34.589Z,85.05
2017-11-18T21:14:03.341Z,84.39
2017-11-18T21:16:31.077Z,84.37
2017-11-18T21:19:00.171Z,84.85
2017-11-18T21:21:27.925Z,84.89
2017-11-18T21:23:55.708Z,84.13
2017-11-18T21:26:23.551Z,84.07
2017-11-18T21:28:51.230Z,84.94
2017-11-18T21:31:18.974Z,85.44
2017-11-18T21:33:46.719Z,85.84
2017-11-18T21:36:15.108Z,85.82
2017-11-18T21:38:42.855Z,86.25
2017-11-18T21:41:10.606Z,84.42
2017-11-18T21:43:38.321Z,83.39
2017-11-18T21:46:06.105Z,81.48
2017-11-18T21:48:33.913Z,80.82
2017-11-18T21:51:02.578Z,80.45
2017-11-18T21:53:30.280Z,79.18
2017-11-18T21:55:58.155Z,79.74
2017-11-18T21:58:25.826Z,79.98
2017-11-18T22:00:53.586Z,79.74
2017-11-18T22:03:21.285Z,80.83
2017-11-18T22:05:48.993Z,81.64
2017-11-18T22:08:16.757Z,80.71
2017-11-18T22:10:44.510Z,80.49
2017-11-18T22:13:12.199Z,80.85
2017-11-18T22:15:39.935Z,81.64
2017-11-18T22:18:07.602Z,81.72
2017-11-18T22:20:35.369Z,81.79
2017-11-18T22:23:03.184Z,82.22
2017-11-18T22:25:30.918Z,82.71
2017-11-18T22:27:58.709Z,82.62
2017-11-18T22:30:26.460Z,83.68
2017-11-18T22:32:54.267Z,82.96
2017-11-18T22:35:22.069Z,82.82
2017-11-18T22:37:49.767Z,81.82
2017-11-18T22:40:17.523Z,81.71
2017-11-18T22:42:45.238Z,81.55
2017-11-18T22:45:12.970Z,81.15
2017-11-18T22:47:40.807Z,81.20
2017-11-18T22:50:08.516Z,80.92
2017-11-18T22:52:36.301Z,81.19
2017-11-18T22:55:04.101Z,79.84
2017-11-18T22:57:32.084Z,78.63
2017-11-18T22:59:59.903Z,75.56
2017-11-18T23:02:27.745Z,74.47
2017-11-18T23:04:55.425Z,72.99
2017-11-18T23:07:23.160Z,75.99
2017-11-18T23:09:50.897Z,72.46
2017-11-18T23:12:18.654Z,73.95
2017-11-18T23:14:46.405Z,71.11
2017-11-18T23:17:14.096Z,71.25
2017-11-18T23:19:41.852Z,70.81
2017-11-18T23:22:09.549Z,70.91
2017-11-18T23:24:37.305Z,70.98
2017-11-18T23:27:05.009Z,71.28
2017-11-18T23:29:32.712Z,70.90
2017-11-18T23:32:00.471Z,69.84
2017-11-18T23:34:28.202Z,70.25
2017-11-18T23:36:55.930Z,69.04
2017-11-18T23:39:23.632Z,69.42
2017-11-18T23:41:51.377Z,68.65
2017-11-18T23:44:19.110Z,69.82
2017-11-18T23:46:46.805Z,69.05
2017-11-18T23:49:14.554Z,68.35
2017-11-18T23:51:42.251Z,68.40
2017-11-18T23:54:09.977Z,67.83
2017-11-18T23:56:37.770Z,69.10
2017-11-18T23:59:05.467Z,68.34
